Time;durP1;ratioP1;P1;durP2;ratioP2;P2;SDS_P1;SDS_P2;PMS_P1;PMS_P2;Temp;Humidity;BMP_temperature;BMP_pressure;BME280_temperature;BME280_humidity;BME280_pressure;Samples;Min_cycle;Max_cycle;Signal;HPM_P1;HPM_P2
2021/12/18 00:02:19;;;;;;;377.50;264.65;;;;;;;23.35;38.14;102775.56;5064181;28;20042;-43
2021/12/18 00:04:48;;;;;;;378.92;269.42;;;;;;;23.30;38.22;102769.25;5063976;28;20063;-43
2021/12/18 00:07:17;;;;;;;373.92;262.90;;;;;;;23.22;38.25;102763.66;5064777;28;20025;-43
2021/12/18 00:09:46;;;;;;;370.73;257.52;;;;;;;23.30;38.52;102762.28;5064642;28;20032;-44
2021/12/18 00:12:15;;;;;;;372.08;263.27;;;;;;;23.29;38.38;102770.06;5064437;28;20021;-42
2021/12/18 00:14:46;;;;;;;378.90;263.00;;;;;;;23.28;38.55;102763.91;5064532;28;20141;-43
2021/12/18 00:17:15;;;;;;;382.15;269.80;;;;;;;23.32;38.19;102764.97;5064473;28;20035;-44
2021/12/18 00:19:44;;;;;;;370.33;259.48;;;;;;;23.32;38.47;102759.75;5064495;28;20024;-43
2021/12/18 00:22:13;;;;;;;387.00;273.05;;;;;;;23.29;38.52;102754.34;5064075;28;20035;-44
2021/12/18 00:24:42;;;;;;;377.13;270.48;;;;;;;23.25;38.33;102757.66;5064354;28;20021;-43
2021/12/18 00:27:10;;;;;;;377.42;268.65;;;;;;;23.18;38.57;102748.59;5064109;28;20061;-42
2021/12/18 00:29:39;;;;;;;359.75;251.98;;;;;;;23.23;38.08;102762.84;5063918;28;20059;-43
2021/12/18 00:32:07;;;;;;;368.35;256.50;;;;;;;23.28;38.05;102757.81;5063802;28;20035;-43
2021/12/18 00:34:39;;;;;;;349.60;250.18;;;;;;;23.33;37.93;102762.41;5064422;28;20024;-42
2021/12/18 00:37:07;;;;;;;347.05;243.35;;;;;;;23.29;37.58;102767.44;5064134;28;20028;-44
2021/12/18 00:39:42;;;;;;;338.17;237.35;;;;;;;23.26;37.77;102765.56;5064292;28;20032;-43
2021/12/18 00:42:33;;;;;;;328.55;238.02;;;;;;;23.25;37.99;102765.50;5062592;28;20032;-43
2021/12/18 00:44:58;;;;;;;311.20;221.27;;;;;;;23.24;37.51;102763.72;5063734;28;20040;-42
2021/12/18 00:47:27;;;;;;;330.73;231.65;;;;;;;23.26;37.67;102757.72;5063937;28;20394;-42
2021/12/18 00:49:55;;;;;;;335.15;235.57;;;;;;;23.19;37.96;102763.50;5063816;28;20041;-42
2021/12/18 00:52:24;;;;;;;320.20;228.82;;;;;;;23.21;38.06;102759.25;5064053;28;20062;-44
2021/12/18 00:54:53;;;;;;;305.90;219.10;;;;;;;23.11;37.95;102757.91;5063306;28;20035;-43
2021/12/18 00:57:21;;;;;;;325.52;223.88;;;;;;;23.16;37.73;102755.50;5063718;28;20428;-42
2021/12/18 00:59:52;;;;;;;316.65;224.10;;;;;;;23.21;37.91;102751.41;5063327;28;20161;-42
2021/12/18 01:02:21;;;;;;;312.02;219.88;;;;;;;23.22;37.47;102753.19;5062218;28;20082;-43
2021/12/18 01:04:49;;;;;;;304.67;216.93;;;;;;;23.21;37.88;102748.78;5063539;28;20535;-42
2021/12/18 01:07:18;;;;;;;312.20;218.60;;;;;;;23.16;38.04;102752.88;5063041;28;20062;-43
2021/12/18 01:12:41;;;;;;;309.00;212.45;;;;;;;23.11;37.89;102751.75;5057135;28;20036;-42
2021/12/18 01:15:17;;;;;;;297.25;207.40;;;;;;;23.23;37.63;102744.50;5063588;28;20370;-43
2021/12/18 01:23:22;;;;;;;268.55;188.20;;;;;;;23.12;37.64;102741.38;5059653;28;20040;-43
2021/12/18 01:25:51;;;;;;;280.60;188.32;;;;;;;23.09;37.76;102741.22;5063515;28;20050;-42
2021/12/18 01:28:20;;;;;;;249.57;178.00;;;;;;;23.13;37.46;102732.69;5063425;28;20097;-42
2021/12/18 01:30:49;;;;;;;252.15;180.95;;;;;;;23.18;37.40;102732.91;5063415;28;20066;-42
2021/12/18 01:33:17;;;;;;;240.02;172.30;;;;;;;23.15;37.65;102728.44;5063040;28;20024;-42
2021/12/18 01:35:46;;;;;;;238.75;164.35;;;;;;;23.10;37.25;102727.31;5063010;28;20032;-42
2021/12/18 01:38:15;;;;;;;236.63;167.85;;;;;;;23.07;37.54;102737.66;5063150;28;20029;-42
2021/12/18 01:40:43;;;;;;;229.52;160.73;;;;;;;23.04;37.44;102751.50;5062896;28;20029;-42
2021/12/18 01:51:23;;;;;;;207.77;143.93;;;;;;;23.15;36.87;102744.13;5059481;28;20040;-42
2021/12/18 01:53:54;;;;;;;198.65;138.68;;;;;;;23.20;37.17;102747.88;5061514;28;20067;-42
2021/12/18 01:56:23;;;;;;;194.38;135.68;;;;;;;23.17;37.03;102746.81;5062582;28;20036;-42
2021/12/18 01:58:52;;;;;;;197.23;134.43;;;;;;;23.16;36.91;102745.94;5062952;28;20366;-42
2021/12/18 02:01:21;;;;;;;181.90;129.73;;;;;;;23.18;37.05;102746.88;5063259;28;20115;-42
2021/12/18 02:03:50;;;;;;;179.63;128.20;;;;;;;23.19;37.05;102742.53;5063262;28;20028;-43
2021/12/18 02:06:19;;;;;;;190.70;130.63;;;;;;;23.16;37.18;102745.94;5063114;28;20035;-42
2021/12/18 02:08:48;;;;;;;182.75;125.22;;;;;;;23.17;37.02;102738.97;5062896;28;20047;-43
2021/12/18 02:19:57;;;;;;;167.98;116.30;;;;;;;23.00;36.97;102746.94;5058002;28;20048;-42
2021/12/18 02:21:54;;;;;;;162.93;113.97;;;;;;;23.04;36.90;102742.75;5062394;28;20596;-42
2021/12/18 02:24:26;;;;;;;152.00;109.07;;;;;;;22.99;36.98;102749.50;5065061;28;20032;-42
2021/12/18 02:26:55;;;;;;;159.75;111.65;;;;;;;23.09;37.00;102750.78;5066385;28;20147;-42
2021/12/18 02:29:24;;;;;;;150.32;107.57;;;;;;;23.05;36.92;102755.00;5065814;28;20139;-41
2021/12/18 02:31:53;;;;;;;151.05;104.55;;;;;;;23.12;36.65;102740.47;5065104;28;20119;-42
2021/12/18 02:34:27;;;;;;;151.95;106.30;;;;;;;23.09;36.60;102730.75;5066362;28;20036;-42
2021/12/18 02:37:03;;;;;;;144.07;102.65;;;;;;;23.09;36.96;102741.22;5066725;28;20529;-42
2021/12/18 02:42:11;;;;;;;143.75;99.18;;;;;;;23.00;37.19;102738.22;5066565;28;20467;-43
2021/12/18 02:44:40;;;;;;;143.07;100.13;;;;;;;23.09;36.66;102733.38;5066205;28;20029;-42
2021/12/18 02:47:10;;;;;;;126.82;94.38;;;;;;;23.04;36.73;102735.81;5065861;28;20044;-43
2021/12/18 02:49:42;;;;;;;129.55;93.05;;;;;;;23.04;36.59;102727.94;5064258;28;20081;-43
2021/12/18 02:52:10;;;;;;;131.52;91.57;;;;;;;23.08;36.69;102734.22;5065462;28;20035;-42
2021/12/18 02:54:40;;;;;;;126.90;92.50;;;;;;;22.99;36.73;102725.97;5066018;28;20478;-42
2021/12/18 02:57:09;;;;;;;124.22;87.85;;;;;;;22.99;36.60;102712.88;5065941;28;20153;-42
2021/12/18 02:59:50;;;;;;;119.50;87.15;;;;;;;23.12;36.68;102714.28;5065698;28;20028;-42
2021/12/18 03:02:20;;;;;;;120.28;84.57;;;;;;;22.96;36.90;102707.50;5066058;28;21266;-41
2021/12/18 03:04:54;;;;;;;118.70;85.60;;;;;;;23.00;36.53;102699.84;5065406;28;20036;-41
2021/12/18 03:07:25;;;;;;;120.13;87.20;;;;;;;22.97;36.63;102704.06;5065958;28;20032;-43
2021/12/18 03:22:19;;;;;;;111.57;81.43;;;;;;;22.99;36.73;102691.94;5061277;28;20117;-42
2021/12/18 03:24:10;;;;;;;111.32;79.38;;;;;;;22.99;36.55;102705.03;5061879;28;20486;-43
2021/12/18 03:26:38;;;;;;;116.65;82.03;;;;;;;22.97;36.42;102701.44;5065136;28;20043;-43
2021/12/18 03:29:07;;;;;;;113.55;78.15;;;;;;;22.98;36.40;102703.22;5064958;28;20048;-42
2021/12/18 03:31:36;;;;;;;108.78;79.28;;;;;;;22.95;36.67;102705.69;5064455;28;20378;-43
2021/12/18 03:34:04;;;;;;;116.13;79.85;;;;;;;22.95;36.59;102705.69;5063754;28;20024;-42
2021/12/18 03:36:33;;;;;;;107.13;76.93;;;;;;;22.90;36.48;102713.34;5064671;28;20040;-43
2021/12/18 03:39:01;;;;;;;103.95;77.10;;;;;;;22.95;36.61;102708.31;5047419;28;20036;-42
2021/12/18 03:41:30;;;;;;;106.55;76.18;;;;;;;22.99;36.25;102713.75;5064802;28;20035;-42
2021/12/18 03:43:58;;;;;;;104.30;76.65;;;;;;;22.87;36.48;102721.94;5063977;28;20038;-44
2021/12/18 03:46:26;;;;;;;103.60;73.50;;;;;;;22.92;36.42;102715.19;5064992;28;20500;-43
2021/12/18 03:48:55;;;;;;;111.93;75.80;;;;;;;23.00;36.19;102719.91;5063140;28;20028;-44
2021/12/18 03:51:24;;;;;;;99.65;73.20;;;;;;;22.97;36.44;102711.91;5063597;28;20418;-43
2021/12/18 03:53:52;;;;;;;100.22;74.18;;;;;;;22.94;36.73;102712.63;5064728;28;20037;-42
2021/12/18 03:56:21;;;;;;;107.10;76.88;;;;;;;22.92;36.53;102709.06;5063753;28;20051;-42
2021/12/18 03:58:49;;;;;;;104.72;76.00;;;;;;;22.94;36.62;102717.00;5064882;28;20493;-43
2021/12/18 04:01:18;;;;;;;112.40;77.00;;;;;;;22.86;36.71;102716.66;5064843;28;20076;-44
2021/12/18 04:03:47;;;;;;;109.88;76.07;;;;;;;22.90;36.63;102709.00;5064793;28;20115;-42
2021/12/18 04:06:15;;;;;;;107.93;76.97;;;;;;;22.98;36.16;102711.97;5064587;28;20024;-43
2021/12/18 04:08:44;;;;;;;100.85;72.63;;;;;;;22.93;36.58;102716.06;5064044;28;20505;-43
2021/12/18 04:11:13;;;;;;;109.90;77.20;;;;;;;22.92;36.38;102709.06;5063034;28;20036;-42
2021/12/18 04:13:45;;;;;;;103.68;72.55;;;;;;;22.85;36.77;102720.97;5064311;28;20350;-41
2021/12/18 04:16:14;;;;;;;108.32;74.82;;;;;;;22.80;36.68;102717.25;5064425;28;20062;-42
2021/12/18 04:18:43;;;;;;;105.35;74.97;;;;;;;22.88;36.38;102723.72;5064262;28;20115;-42
2021/12/18 04:21:11;;;;;;;106.47;74.55;;;;;;;22.88;36.48;102720.22;5064515;28;20032;-41
2021/12/18 04:23:40;;;;;;;112.32;74.85;;;;;;;22.67;36.84;102705.34;5064514;28;20032;-42
2021/12/18 04:26:08;;;;;;;106.60;73.90;;;;;;;22.83;36.38;102727.88;5064482;28;20045;-43
2021/12/18 04:28:37;;;;;;;102.65;73.72;;;;;;;22.77;36.47;102733.69;5064198;28;20074;-42
2021/12/18 04:31:06;;;;;;;107.05;74.40;;;;;;;22.77;36.59;102728.47;5064214;28;20106;-42
2021/12/18 04:33:34;;;;;;;103.43;72.10;;;;;;;22.83;36.68;102719.13;5063816;28;20086;-42
2021/12/18 04:36:03;;;;;;;107.97;76.20;;;;;;;22.90;36.53;102732.53;5063926;28;20090;-42
2021/12/18 04:38:31;;;;;;;100.68;71.90;;;;;;;22.95;36.12;102729.25;5062985;28;20997;-42
2021/12/18 04:41:00;;;;;;;108.60;76.57;;;;;;;22.90;36.10;102721.19;5064241;28;20032;-42
2021/12/18 04:43:29;;;;;;;107.43;73.57;;;;;;;22.84;36.67;102729.63;5064173;28;20142;-44
2021/12/18 04:45:57;;;;;;;104.28;75.00;;;;;;;22.87;36.33;102735.03;5064019;28;20024;-46
2021/12/18 04:48:26;;;;;;;106.18;73.10;;;;;;;22.83;36.76;102733.13;5063770;28;20028;-42
2021/12/18 04:50:54;;;;;;;106.68;74.43;;;;;;;22.89;36.36;102728.13;5063622;28;20529;-43
2021/12/18 04:53:23;;;;;;;105.32;73.95;;;;;;;22.89;36.41;102720.28;5063593;28;20329;-42
2021/12/18 04:55:51;;;;;;;106.72;74.75;;;;;;;22.74;36.52;102725.72;5063908;28;20032;-43
2021/12/18 04:58:20;;;;;;;108.82;74.47;;;;;;;22.79;36.46;102715.47;5063703;28;20029;-43
2021/12/18 05:00:48;;;;;;;103.00;72.97;;;;;;;22.81;36.35;102724.28;5063453;28;20032;-41
2021/12/18 05:03:18;;;;;;;110.20;74.72;;;;;;;22.87;36.41;102729.78;5063739;28;20028;-41
2021/12/18 05:05:47;;;;;;;103.95;74.03;;;;;;;22.87;36.42;102728.91;5063726;28;20029;-41
2021/12/18 05:08:15;;;;;;;103.70;73.75;;;;;;;22.81;36.72;102732.13;5063268;28;20072;-41
2021/12/18 05:10:43;;;;;;;98.50;71.22;;;;;;;22.77;36.42;102728.47;5063498;28;20401;-41
2021/12/18 05:13:12;;;;;;;109.03;77.15;;;;;;;22.87;36.29;102731.53;5063707;28;20020;-43
2021/12/18 05:15:40;;;;;;;107.28;72.40;;;;;;;22.74;36.66;102732.66;5063120;28;20040;-42
2021/12/18 05:18:08;;;;;;;108.80;75.80;;;;;;;22.72;36.76;102742.16;5062009;28;20029;-42
2021/12/18 05:20:36;;;;;;;99.53;72.05;;;;;;;22.70;36.93;102742.09;5063277;28;20043;-43
2021/12/18 05:23:05;;;;;;;103.05;75.03;;;;;;;22.76;36.69;102747.59;5063188;28;20036;-42
2021/12/18 05:25:34;;;;;;;102.50;74.38;;;;;;;22.71;36.48;102746.50;5063566;28;20032;-42
2021/12/18 05:28:03;;;;;;;109.43;74.40;;;;;;;22.75;36.65;102750.16;5063303;28;20047;-42
2021/12/18 05:30:31;;;;;;;107.70;77.93;;;;;;;22.82;36.23;102748.72;5063404;28;20712;-42
2021/12/18 05:33:00;;;;;;;110.45;75.53;;;;;;;22.89;36.09;102748.19;5063511;28;20402;-42
2021/12/18 05:35:30;;;;;;;107.47;75.10;;;;;;;22.81;36.41;102744.31;5063261;28;20041;-42
2021/12/18 05:38:04;;;;;;;107.32;74.75;;;;;;;22.76;36.25;102741.50;5062841;28;20036;-42
2021/12/18 05:40:34;;;;;;;102.18;72.38;;;;;;;22.70;36.69;102741.19;5061636;28;20060;-42
2021/12/18 05:43:03;;;;;;;106.20;73.10;;;;;;;22.74;36.36;102738.81;5063450;28;20033;-42
2021/12/18 05:45:32;;;;;;;104.30;72.45;;;;;;;22.85;36.32;102741.03;5063219;28;20519;-42
2021/12/18 05:48:00;;;;;;;99.40;70.78;;;;;;;22.77;36.33;102748.50;5062981;28;20035;-43
2021/12/18 05:50:29;;;;;;;110.43;74.90;;;;;;;22.81;36.08;102750.47;5063039;28;20029;-42
2021/12/18 05:52:59;;;;;;;101.90;72.47;;;;;;;22.76;36.15;102742.38;5063149;28;20043;-42
2021/12/18 05:55:29;;;;;;;105.93;71.03;;;;;;;22.74;36.31;102749.28;5065065;28;20128;-42
2021/12/18 05:57:57;;;;;;;105.75;72.90;;;;;;;22.76;36.06;102751.97;5067275;28;20815;-42
2021/12/18 06:00:26;;;;;;;106.15;69.60;;;;;;;22.78;36.23;102750.31;5066819;28;20078;-42
2021/12/18 06:02:54;;;;;;;101.13;70.45;;;;;;;22.75;36.59;102752.78;5066943;28;20497;-42
2021/12/18 06:05:23;;;;;;;98.50;71.63;;;;;;;22.77;36.33;102764.22;5067316;28;20056;-42
2021/12/18 06:07:56;;;;;;;98.07;70.15;;;;;;;22.85;35.96;102756.72;5066994;28;20599;-42
2021/12/18 06:10:28;;;;;;;96.82;68.00;;;;;;;22.75;36.40;102758.00;5067419;28;20076;-41
2021/12/18 06:12:59;;;;;;;100.57;71.93;;;;;;;22.71;36.24;102761.31;5066629;28;20085;-42
2021/12/18 06:15:28;;;;;;;103.68;72.80;;;;;;;22.75;36.13;102758.00;5067465;28;20028;-42
2021/12/18 06:17:56;;;;;;;98.38;70.57;;;;;;;22.76;36.30;102760.69;5065219;28;20035;-42
2021/12/18 06:20:26;;;;;;;107.10;74.10;;;;;;;22.73;36.32;102751.81;5066465;28;20557;-42
2021/12/18 06:22:55;;;;;;;100.68;69.97;;;;;;;22.72;36.22;102750.94;5065142;28;20067;-42
2021/12/18 06:25:24;;;;;;;100.93;71.47;;;;;;;22.77;36.16;102766.84;5066854;28;20071;-43
2021/12/18 06:27:52;;;;;;;98.28;68.95;;;;;;;22.80;35.94;102769.59;5066450;28;20063;-43
2021/12/18 06:30:21;;;;;;;95.90;68.75;;;;;;;22.72;36.36;102758.78;5066062;28;20503;-42
2021/12/18 06:32:50;;;;;;;98.22;68.72;;;;;;;22.72;36.20;102769.25;5066540;28;20067;-42
2021/12/18 06:35:19;;;;;;;100.15;70.65;;;;;;;22.71;36.23;102770.06;5066418;28;20044;-42
2021/12/18 06:37:48;;;;;;;94.57;68.97;;;;;;;22.72;36.06;102774.47;5065139;28;20052;-41
2021/12/18 06:40:17;;;;;;;99.72;69.00;;;;;;;22.74;36.21;102777.16;5064688;28;20165;-44
2021/12/18 06:42:45;;;;;;;98.90;71.22;;;;;;;22.79;35.89;102785.22;5066092;28;20028;-43
2021/12/18 06:45:14;;;;;;;99.20;71.68;;;;;;;22.65;36.36;102776.72;5066162;28;20093;-45
2021/12/18 06:47:42;;;;;;;95.68;69.47;;;;;;;22.67;36.27;102788.16;5066155;28;20079;-42
2021/12/18 06:50:11;;;;;;;104.15;72.07;;;;;;;22.70;36.01;102790.91;5065612;28;20564;-43
2021/12/18 06:52:39;;;;;;;102.40;72.97;;;;;;;22.67;36.25;102782.94;5048055;28;20033;-43
2021/12/18 06:55:08;;;;;;;108.03;72.60;;;;;;;22.68;36.43;102787.31;5066220;28;20024;-44
2021/12/18 06:57:36;;;;;;;96.65;69.25;;;;;;;22.70;36.27;102781.34;5065695;28;20040;-45
2021/12/18 07:00:07;;;;;;;99.68;65.93;;;;;;;22.69;36.17;102783.88;5065937;28;20324;-46
2021/12/18 07:02:35;;;;;;;96.38;65.25;;;;;;;22.67;35.83;102782.94;5065427;28;20111;-43
2021/12/18 07:05:04;;;;;;;99.85;63.67;;;;;;;22.65;35.88;102782.84;5064653;28;20024;-44
2021/12/18 07:07:32;;;;;;;91.15;64.03;;;;;;;22.64;36.10;102781.03;5065543;28;20090;-43
2021/12/18 07:10:01;;;;;;;93.05;63.35;;;;;;;22.66;36.01;102775.91;5065389;28;20043;-43
2021/12/18 07:12:30;;;;;;;90.60;61.30;;;;;;;22.63;36.15;102771.41;5065701;28;20028;-43
2021/12/18 07:14:58;;;;;;;89.75;63.38;;;;;;;22.65;35.94;102771.50;5065739;28;20060;-42
2021/12/18 07:17:27;;;;;;;94.22;65.47;;;;;;;22.84;35.82;102770.63;5065545;28;20040;-43
2021/12/18 07:19:55;;;;;;;90.10;63.28;;;;;;;22.76;35.93;102767.66;5065549;28;20089;-42
2021/12/18 07:22:23;;;;;;;89.97;61.35;;;;;;;22.68;35.89;102764.69;5065332;28;20097;-43
2021/12/18 07:24:52;;;;;;;91.55;62.30;;;;;;;22.70;36.03;102767.34;5065483;28;20028;-42
2021/12/18 07:27:20;;;;;;;91.68;62.10;;;;;;;22.65;36.28;102767.16;5063718;28;20031;-42
2021/12/18 07:29:49;;;;;;;93.38;63.85;;;;;;;22.68;35.79;102764.69;5063824;28;20389;-42
2021/12/18 07:32:17;;;;;;;94.90;62.00;;;;;;;22.81;35.69;102766.16;5065320;28;20035;-42
2021/12/18 07:34:46;;;;;;;83.70;60.80;;;;;;;22.74;35.79;102770.22;5064364;28;20027;-43
2021/12/18 07:37:14;;;;;;;86.78;60.53;;;;;;;22.72;35.93;102765.72;5065413;28;20033;-43
2021/12/18 07:39:43;;;;;;;92.45;63.45;;;;;;;22.77;36.16;102779.91;5063915;28;20797;-43
2021/12/18 07:42:11;;;;;;;88.88;61.22;;;;;;;22.80;36.01;102777.44;5065147;28;20063;-43
2021/12/18 07:44:42;;;;;;;91.05;61.72;;;;;;;22.75;36.03;102776.31;5065133;28;20032;-43
2021/12/18 07:47:10;;;;;;;88.95;61.13;;;;;;;22.78;36.14;102773.84;5064957;28;20035;-43
2021/12/18 07:49:39;;;;;;;91.20;60.47;;;;;;;22.75;36.06;102776.31;5064816;28;20143;-43
2021/12/18 07:52:07;;;;;;;94.38;65.82;;;;;;;22.74;36.06;102788.53;5064804;28;20213;-43
2021/12/18 07:54:36;;;;;;;87.88;61.85;;;;;;;22.71;36.17;102787.47;5064766;28;20481;-44
2021/12/18 07:57:05;;;;;;;93.68;63.67;;;;;;;22.75;36.08;102792.03;5064849;28;20121;-43
2021/12/18 07:59:34;;;;;;;90.47;59.38;;;;;;;22.65;36.17;102790.69;5064842;28;20115;-43
2021/12/18 08:02:04;;;;;;;82.65;59.28;;;;;;;22.73;36.41;102796.28;5064566;28;20497;-46
2021/12/18 08:04:34;;;;;;;88.72;62.25;;;;;;;22.72;36.07;102795.41;5063627;28;20037;-43
2021/12/18 08:07:03;;;;;;;87.43;59.88;;;;;;;22.75;35.99;102794.63;5064571;28;20115;-43
2021/12/18 08:09:32;;;;;;;91.20;61.42;;;;;;;22.77;36.05;102803.47;5064483;28;20052;-44
2021/12/18 08:12:00;;;;;;;89.55;61.08;;;;;;;22.75;36.32;102799.88;5064392;28;20402;-43
2021/12/18 08:14:30;;;;;;;93.07;62.80;;;;;;;22.76;36.14;102805.16;5064317;28;20024;-43
2021/12/18 08:16:59;;;;;;;90.50;62.88;;;;;;;22.83;36.32;102806.38;5064474;28;20075;-45
2021/12/18 08:19:27;;;;;;;90.60;62.90;;;;;;;22.80;36.18;102811.47;5063796;28;20094;-43
2021/12/18 08:21:56;;;;;;;91.20;64.38;;;;;;;22.76;36.19;102826.09;5063918;28;20028;-43
2021/12/18 08:24:24;;;;;;;86.97;64.15;;;;;;;22.77;36.26;102830.50;5064564;28;20027;-45
2021/12/18 08:26:53;;;;;;;96.55;63.35;;;;;;;22.85;35.81;102840.47;5064077;28;20028;-43
2021/12/18 08:29:22;;;;;;;90.57;63.72;;;;;;;22.90;35.67;102842.47;5064271;28;20126;-43
2021/12/18 08:31:51;;;;;;;91.25;64.00;;;;;;;22.94;36.07;102842.63;5064113;28;20036;-43
2021/12/18 08:34:21;;;;;;;88.60;63.13;;;;;;;22.90;36.06;102841.59;5064381;28;20821;-43
2021/12/18 08:36:50;;;;;;;90.00;63.17;;;;;;;22.85;36.16;102851.81;5064127;28;20028;-43
2021/12/18 08:39:17;;;;;;;86.38;61.78;;;;;;;22.79;36.49;102846.31;5063578;28;20466;-42
2021/12/18 08:41:46;;;;;;;93.82;65.43;;;;;;;22.85;36.34;102843.94;5064038;28;20039;-42
2021/12/18 08:44:14;;;;;;;99.95;65.15;;;;;;;22.86;36.10;102853.59;5064118;28;20043;-42
2021/12/18 08:46:43;;;;;;;89.82;62.35;;;;;;;22.90;36.16;102852.06;5063802;28;20028;-44
2021/12/18 08:49:12;;;;;;;95.35;64.53;;;;;;;22.99;35.76;102847.22;5063552;28;20127;-42
2021/12/18 08:51:41;;;;;;;89.43;63.42;;;;;;;23.01;35.91;102852.53;5063256;28;20036;-43
2021/12/18 08:54:09;;;;;;;92.18;66.88;;;;;;;23.02;36.06;102847.38;5063806;28;20036;-42
2021/12/18 08:56:38;;;;;;;92.47;65.63;;;;;;;23.17;35.84;102844.56;5062677;28;20898;-42
2021/12/18 08:59:06;;;;;;;101.03;66.57;;;;;;;23.27;35.25;102852.91;5064038;28;20241;-43
2021/12/18 09:01:35;;;;;;;98.18;67.70;;;;;;;23.06;35.52;102827.47;5062293;28;20025;-42
2021/12/18 09:04:03;;;;;;;95.50;64.53;;;;;;;23.25;35.68;102863.28;5063144;28;20025;-42
2021/12/18 09:06:32;;;;;;;95.00;66.53;;;;;;;23.21;35.45;102866.59;5063876;28;20119;-42
2021/12/18 09:09:00;;;;;;;90.75;64.45;;;;;;;23.28;35.34;102865.16;5062145;28;20050;-41
2021/12/18 09:11:28;;;;;;;94.00;65.53;;;;;;;23.27;35.77;102871.22;5063732;28;20033;-41
2021/12/18 09:13:57;;;;;;;93.35;63.92;;;;;;;23.20;35.52;102876.16;5063447;28;20047;-42
2021/12/18 09:16:24;;;;;;;88.63;64.35;;;;;;;23.26;35.56;102874.66;5063748;28;20033;-42
2021/12/18 09:18:52;;;;;;;94.85;64.97;;;;;;;23.26;35.56;102869.44;5063228;28;20139;-42
2021/12/18 09:21:22;;;;;;;89.15;63.50;;;;;;;23.32;35.41;102870.59;5063583;28;20497;-42
2021/12/18 09:23:50;;;;;;;93.45;63.13;;;;;;;23.33;35.31;102874.13;5063624;28;20039;-41
2021/12/18 09:26:19;;;;;;;90.40;63.22;;;;;;;23.46;35.16;102880.81;5062268;28;20066;-42
2021/12/18 09:28:47;;;;;;;92.13;61.50;;;;;;;23.41;35.51;102880.59;5061461;28;20024;-42
2021/12/18 09:31:15;;;;;;;87.40;60.22;;;;;;;23.40;35.23;102878.81;5062313;28;20032;-42
2021/12/18 09:33:44;;;;;;;91.70;60.72;;;;;;;23.38;35.49;102880.47;5063545;28;20028;-42
2021/12/18 09:36:12;;;;;;;86.93;59.08;;;;;;;23.40;35.39;102883.16;5045804;28;20478;-43
2021/12/18 09:38:40;;;;;;;89.38;60.88;;;;;;;23.48;35.08;102881.78;5063041;28;20028;-42
2021/12/18 09:41:09;;;;;;;84.78;58.20;;;;;;;23.39;35.54;102884.00;5063139;28;20115;-43
2021/12/18 09:43:40;;;;;;;90.20;61.35;;;;;;;23.42;35.11;102892.88;5063131;28;20036;-42
2021/12/18 09:46:11;;;;;;;88.10;57.97;;;;;;;23.41;35.23;102892.81;5045905;28;20024;-42
2021/12/18 09:48:40;;;;;;;87.57;57.40;;;;;;;23.46;35.02;102901.75;5061764;28;20028;-43
2021/12/18 09:51:14;;;;;;;83.75;57.67;;;;;;;23.54;34.77;102902.13;5063396;28;20032;-42
2021/12/18 09:53:42;;;;;;;85.15;58.95;;;;;;;23.55;34.79;102912.69;5062014;28;20113;-42
2021/12/18 09:56:11;;;;;;;78.95;56.67;;;;;;;23.51;35.29;102916.88;5063155;28;20025;-42
2021/12/18 09:58:39;;;;;;;81.72;58.22;;;;;;;23.50;35.21;102917.69;5062874;28;20025;-42
2021/12/18 10:01:07;;;;;;;78.47;55.53;;;;;;;23.58;35.13;102914.53;5063430;28;20123;-43
2021/12/18 10:03:51;;;;;;;81.05;56.85;;;;;;;23.64;34.71;102917.44;5061670;28;20367;-42
2021/12/18 10:06:40;;;;;;;82.05;58.28;;;;;;;23.69;34.88;102920.25;5063123;28;20470;-42
2021/12/18 10:09:12;;;;;;;81.30;56.38;;;;;;;23.62;34.85;102925.22;5057009;28;20052;-42
2021/12/18 10:12:00;;;;;;;80.25;56.80;;;;;;;23.61;35.09;102925.16;5061209;28;20040;-42
2021/12/18 10:14:48;;;;;;;86.07;57.72;;;;;;;23.72;34.80;102928.28;5062754;28;20032;-42
2021/12/18 10:17:35;;;;;;;80.03;57.92;;;;;;;23.76;34.57;102933.72;5062853;28;20032;-43
2021/12/18 10:20:11;;;;;;;82.88;57.28;;;;;;;23.74;34.54;102932.75;5062710;28;20139;-42
2021/12/18 10:23:01;;;;;;;84.03;56.83;;;;;;;23.73;34.75;102941.44;5062519;28;20404;-42
2021/12/18 10:25:34;;;;;;;84.15;58.55;;;;;;;23.73;34.85;102941.44;5062803;28;20029;-43
2021/12/18 10:28:13;;;;;;;86.07;57.60;;;;;;;23.67;34.77;102938.53;5062960;28;20070;-42
2021/12/18 10:30:46;;;;;;;84.90;57.78;;;;;;;23.73;34.92;102936.19;5062703;28;20094;-42
2021/12/18 10:33:15;;;;;;;84.43;58.97;;;;;;;23.82;34.71;102940.94;5061084;28;20033;-43
2021/12/18 10:35:54;;;;;;;86.90;57.95;;;;;;;23.75;34.81;102947.66;5061362;28;20119;-42
2021/12/18 10:38:44;;;;;;;76.97;55.85;;;;;;;23.78;34.85;102936.38;5062746;28;20032;-42
2021/12/18 10:41:34;;;;;;;82.85;56.13;;;;;;;23.71;34.91;102947.44;5059412;28;20047;-42
2021/12/18 10:44:03;;;;;;;79.70;56.20;;;;;;;23.74;35.16;102942.34;5066388;28;20024;-42
2021/12/18 10:46:34;;;;;;;82.60;57.78;;;;;;;23.66;35.29;102947.25;5066030;28;20043;-42
2021/12/18 10:49:09;;;;;;;83.70;56.95;;;;;;;23.76;35.10;102946.81;5066112;28;20492;-43
2021/12/18 10:51:39;;;;;;;85.88;55.92;;;;;;;23.67;34.88;102943.75;5065874;28;20137;-43
2021/12/18 10:54:11;;;;;;;79.82;54.35;;;;;;;23.52;34.83;102937.00;5065480;28;20509;-43
2021/12/18 10:56:46;;;;;;;77.55;53.10;;;;;;;23.66;34.67;102939.38;5064015;28;20089;-43
2021/12/18 10:59:36;;;;;;;74.40;51.25;;;;;;;23.82;34.46;102936.63;5064930;28;20024;-42
2021/12/18 11:02:07;;;;;;;71.85;51.47;;;;;;;23.79;34.51;102931.25;5064840;28;20029;-43
2021/12/18 11:04:39;;;;;;;78.75;53.35;;;;;;;23.85;34.56;102922.75;5064866;28;20553;-42
2021/12/18 11:07:29;;;;;;;75.63;51.13;;;;;;;23.92;34.42;102926.53;5065898;28;20905;-43
2021/12/18 11:10:28;;;;;;;77.35;51.65;;;;;;;23.81;34.45;102929.59;5049654;28;20049;-43
2021/12/18 11:15:34;;;;;;;79.43;52.20;;;;;;;23.82;34.40;102918.28;5061864;28;20040;-47
2021/12/18 11:18:03;;;;;;;82.88;53.95;;;;;;;23.78;34.51;102918.97;5064362;28;20071;-43
2021/12/18 11:20:32;;;;;;;79.57;52.90;;;;;;;23.88;34.53;102925.50;5047930;28;20029;-43
2021/12/18 11:22:59;;;;;;;82.38;54.95;;;;;;;23.92;34.11;102927.41;5064249;28;20485;-43
2021/12/18 11:25:28;;;;;;;76.78;53.80;;;;;;;23.89;34.42;102922.06;5065004;28;20116;-44
2021/12/18 11:27:58;;;;;;;81.90;55.25;;;;;;;23.91;34.17;102917.75;5065248;28;20037;-43
2021/12/18 11:30:26;;;;;;;77.70;53.78;;;;;;;23.85;34.30;102914.88;5065394;28;20037;-42
2021/12/18 11:32:55;;;;;;;83.47;56.38;;;;;;;23.92;34.26;102916.03;5064875;28;20036;-42
2021/12/18 11:35:25;;;;;;;78.07;54.78;;;;;;;23.91;34.33;102899.41;5065269;28;20101;-42
2021/12/18 11:37:57;;;;;;;81.20;56.00;;;;;;;23.92;34.84;102905.56;5065149;28;20029;-42
2021/12/18 11:40:28;;;;;;;81.85;55.63;;;;;;;23.95;34.72;102906.59;5065317;28;20028;-42
2021/12/18 11:42:57;;;;;;;81.38;56.50;;;;;;;23.92;34.42;102901.19;5065113;28;20078;-42
2021/12/18 11:45:37;;;;;;;88.05;59.80;;;;;;;23.88;35.06;102894.06;5065078;28;20036;-43
2021/12/18 11:48:06;;;;;;;87.82;59.72;;;;;;;24.01;34.56;102890.25;5065166;28;20028;-42
2021/12/18 11:50:35;;;;;;;91.05;59.00;;;;;;;23.91;34.71;102885.41;5064551;28;20738;-42
2021/12/18 11:53:06;;;;;;;83.75;57.90;;;;;;;23.86;35.07;102885.22;5063661;28;20369;-42
2021/12/18 11:55:38;;;;;;;87.03;59.95;;;;;;;23.86;34.69;102889.56;5065078;28;20203;-42
2021/12/18 11:58:20;;;;;;;86.53;60.45;;;;;;;23.95;35.08;102885.63;5063569;28;20094;-42
2021/12/18 12:00:49;;;;;;;91.25;61.75;;;;;;;24.04;34.91;102887.78;5065037;28;20036;-42